createdAt,value
2019-02-22T00:01:04.400Z,9.00
2019-02-22T00:03:36.114Z,9.00
2019-02-22T00:06:07.017Z,8.90
2019-02-22T00:08:38.029Z,8.90
2019-02-22T00:11:09.176Z,9.00
2019-02-22T00:13:40.086Z,8.90
2019-02-22T00:16:11.106Z,8.90
2019-02-22T00:18:42.012Z,8.90
2019-02-22T00:21:12.983Z,8.90
2019-02-22T00:23:43.894Z,8.90
2019-02-22T00:26:14.843Z,8.90
2019-02-22T00:28:45.852Z,8.90
2019-02-22T00:31:16.776Z,8.80
2019-02-22T00:33:47.812Z,8.90
2019-02-22T00:36:18.698Z,8.90
2019-02-22T00:38:49.646Z,8.90
2019-02-22T00:41:20.889Z,8.90
2019-02-22T00:43:52.854Z,8.90
2019-02-22T00:46:23.779Z,8.90
2019-02-22T00:48:54.817Z,8.90
2019-02-22T00:51:25.834Z,8.90
2019-02-22T00:53:58.184Z,8.90
2019-02-22T00:56:29.130Z,9.00
2019-02-22T00:59:00.096Z,8.90
2019-02-22T01:01:30.992Z,8.90
2019-02-22T01:04:02.174Z,8.90
2019-02-22T01:06:33.128Z,8.90
2019-02-22T01:09:04.939Z,8.90
2019-02-22T01:11:37.413Z,8.90
2019-02-22T01:14:08.295Z,8.90
2019-02-22T01:16:39.123Z,8.90
2019-02-22T01:19:10.009Z,8.90
2019-02-22T01:21:40.897Z,8.90
2019-02-22T01:24:11.781Z,8.90
2019-02-22T01:26:42.642Z,8.90
2019-02-22T01:29:13.653Z,8.90
2019-02-22T01:31:44.518Z,8.90
2019-02-22T01:34:15.409Z,8.90
2019-02-22T01:36:47.373Z,8.90
2019-02-22T01:39:18.366Z,8.90
2019-02-22T01:41:49.623Z,8.90
2019-02-22T01:44:23.056Z,8.90
2019-02-22T01:46:53.970Z,8.90
2019-02-22T01:49:24.991Z,8.90
2019-02-22T01:51:55.908Z,8.90
2019-02-22T01:54:28.337Z,8.90
2019-02-22T01:57:00.242Z,8.90
2019-02-22T01:59:31.147Z,8.90
2019-02-22T02:02:02.059Z,8.80
2019-02-22T02:04:33.558Z,8.90
2019-02-22T02:07:04.773Z,8.90
2019-02-22T02:09:35.705Z,8.90
2019-02-22T02:12:06.683Z,8.90
2019-02-22T02:14:37.588Z,8.90
2019-02-22T02:17:08.496Z,8.90
2019-02-22T02:19:39.404Z,8.90
2019-02-22T02:22:10.330Z,8.90
2019-02-22T02:24:41.254Z,8.90
2019-02-22T02:27:12.259Z,8.90
2019-02-22T02:29:43.213Z,8.90
2019-02-22T02:32:14.128Z,8.90
2019-02-22T02:34:45.065Z,9.00
2019-02-22T02:37:15.958Z,9.00
2019-02-22T02:39:47.935Z,8.90
2019-02-22T02:42:19.355Z,9.00
2019-02-22T02:44:50.346Z,8.90
2019-02-22T02:47:23.994Z,8.90
2019-02-22T02:49:55.021Z,8.90
2019-02-22T02:52:25.903Z,8.90
2019-02-22T02:54:56.830Z,8.90
2019-02-22T02:57:27.932Z,8.90
2019-02-22T02:59:58.838Z,8.90
2019-02-22T03:02:31.521Z,8.90
2019-02-22T03:05:03.324Z,8.90
2019-02-22T03:07:45.484Z,8.90
2019-02-22T03:10:16.367Z,8.90
2019-02-22T03:12:48.257Z,8.90
2019-02-22T03:15:19.975Z,8.90
2019-02-22T03:17:50.905Z,8.90
2019-02-22T03:20:21.912Z,8.90
2019-02-22T03:22:52.870Z,8.90
2019-02-22T03:25:23.845Z,9.00
2019-02-22T03:27:54.738Z,9.00
2019-02-22T03:30:27.164Z,9.00
2019-02-22T03:32:58.074Z,9.00
2019-02-22T03:35:28.934Z,9.10
2019-02-22T03:38:01.112Z,9.10
2019-02-22T03:40:32.078Z,9.10
2019-02-22T03:43:04.203Z,9.10
2019-02-22T03:45:35.108Z,9.10
2019-02-22T03:48:06.016Z,9.20
2019-02-22T03:50:36.910Z,9.20
2019-02-22T03:53:13.373Z,9.20
2019-02-22T03:55:44.454Z,9.20
2019-02-22T03:58:15.449Z,9.20
2019-02-22T04:00:46.340Z,9.20
2019-02-22T04:03:17.243Z,9.20
2019-02-22T04:05:49.037Z,9.30
2019-02-22T04:08:19.972Z,9.20
2019-02-22T04:10:50.886Z,9.20
2019-02-22T04:13:21.755Z,9.20
2019-02-22T04:15:54.438Z,9.20
2019-02-22T04:18:25.298Z,9.30
2019-02-22T04:20:56.293Z,9.20
2019-02-22T04:23:27.191Z,9.30
2019-02-22T04:25:58.100Z,9.30
2019-02-22T04:28:28.986Z,9.20
2019-02-22T04:30:59.894Z,9.20
2019-02-22T04:33:30.762Z,9.20
2019-02-22T04:36:01.736Z,9.20
2019-02-22T04:38:32.630Z,9.20
2019-02-22T04:41:03.467Z,9.20
2019-02-22T04:43:35.528Z,9.20
2019-02-22T04:46:06.477Z,9.20
2019-02-22T04:48:38.453Z,9.20
2019-02-22T04:51:09.406Z,9.20
2019-02-22T04:53:40.417Z,9.20
2019-02-22T04:56:11.329Z,9.10
2019-02-22T04:58:42.212Z,9.10
2019-02-22T05:01:14.231Z,9.10
2019-02-22T05:03:45.255Z,9.10
2019-02-22T05:06:16.532Z,9.10
2019-02-22T05:08:47.982Z,9.10
2019-02-22T05:11:18.973Z,9.10
2019-02-22T05:13:49.862Z,9.10
2019-02-22T05:16:22.035Z,9.10
2019-02-22T05:18:52.905Z,9.20
2019-02-22T05:21:23.873Z,9.20
2019-02-22T05:23:54.752Z,9.20
2019-02-22T05:26:25.764Z,9.20
2019-02-22T05:28:56.635Z,9.20
2019-02-22T05:31:27.540Z,9.20
2019-02-22T05:33:58.424Z,9.20
2019-02-22T05:36:29.405Z,9.20
2019-02-22T05:39:00.293Z,9.20
2019-02-22T05:41:31.247Z,9.20
2019-02-22T05:44:05.260Z,9.20
2019-02-22T05:46:36.163Z,9.20
2019-02-22T05:49:07.091Z,9.20
2019-02-22T05:51:38.033Z,9.20
2019-02-22T05:54:08.953Z,9.20
2019-02-22T05:56:39.840Z,9.10
2019-02-22T05:59:10.910Z,9.10
2019-02-22T06:01:41.754Z,9.10
2019-02-22T06:04:12.708Z,9.10
2019-02-22T06:06:44.013Z,9.10
2019-02-22T06:09:17.972Z,9.10
2019-02-22T06:11:48.881Z,9.10
2019-02-22T06:14:19.742Z,9.10
2019-02-22T06:16:50.763Z,9.20
2019-02-22T06:19:23.494Z,9.20
2019-02-22T06:21:54.382Z,9.20
2019-02-22T06:24:26.896Z,9.10
2019-02-22T06:26:57.873Z,9.10
2019-02-22T06:29:28.768Z,9.10
2019-02-22T06:31:59.765Z,9.10
2019-02-22T06:34:30.613Z,9.10
2019-02-22T06:37:02.403Z,9.10
2019-02-22T06:39:33.548Z,9.10
2019-02-22T06:42:04.582Z,9.10
2019-02-22T06:44:36.857Z,9.10
2019-02-22T06:47:07.766Z,9.10
2019-02-22T06:49:38.726Z,9.10
2019-02-22T06:52:12.288Z,9.10
2019-02-22T06:54:44.965Z,9.10
2019-02-22T06:57:15.887Z,9.10
2019-02-22T06:59:48.516Z,9.10
2019-02-22T07:02:19.499Z,9.10
2019-02-22T07:04:50.473Z,9.10
2019-02-22T07:07:21.660Z,9.10
2019-02-22T07:09:54.581Z,9.10
2019-02-22T07:12:33.145Z,9.10
2019-02-22T07:15:04.112Z,9.10
2019-02-22T07:17:35.031Z,9.10
2019-02-22T07:20:09.142Z,9.10
2019-02-22T07:22:40.180Z,9.20
2019-02-22T07:25:11.379Z,9.20
2019-02-22T07:27:42.269Z,9.20
2019-02-22T07:30:13.175Z,9.20
2019-02-22T07:32:44.144Z,9.20
2019-02-22T07:35:15.203Z,9.20
2019-02-22T07:37:46.103Z,9.30
2019-02-22T07:40:19.768Z,9.30
2019-02-22T07:42:49.518Z,9.30
2019-02-22T07:45:21.527Z,9.30
2019-02-22T07:47:52.561Z,9.40
2019-02-22T07:50:23.525Z,9.40
2019-02-22T07:52:57.557Z,9.40
2019-02-22T07:55:29.963Z,9.40
2019-02-22T07:58:01.031Z,9.50
2019-02-22T08:00:32.053Z,9.50
2019-02-22T08:03:03.125Z,9.50
2019-02-22T08:05:35.554Z,9.50
2019-02-22T08:08:06.859Z,9.60
2019-02-22T08:10:37.850Z,9.60
2019-02-22T08:13:19.191Z,9.60
2019-02-22T08:15:41.397Z,9.60
2019-02-22T08:18:12.373Z,9.60
2019-02-22T08:20:43.268Z,9.70
2019-02-22T08:23:14.494Z,9.70
2019-02-22T08:25:45.520Z,9.70
2019-02-22T08:28:16.486Z,9.70
2019-02-22T08:30:47.344Z,9.80
2019-02-22T08:33:18.362Z,9.80
2019-02-22T08:35:49.280Z,9.80
2019-02-22T08:38:21.278Z,9.80
2019-02-22T08:40:52.413Z,9.90
2019-02-22T08:43:31.030Z,9.90
2019-02-22T08:45:56.003Z,9.90
2019-02-22T08:48:27.013Z,10.00
2019-02-22T08:50:57.947Z,10.00
2019-02-22T08:53:28.860Z,10.00
2019-02-22T08:56:00.938Z,10.00
2019-02-22T08:58:32.027Z,10.10
2019-02-22T09:01:04.235Z,10.10
2019-02-22T09:03:35.354Z,10.10
2019-02-22T09:06:06.425Z,10.20
2019-02-22T09:08:37.527Z,10.20
2019-02-22T09:11:08.802Z,10.20
2019-02-22T09:13:43.699Z,10.30
2019-02-22T09:16:12.269Z,10.30
2019-02-22T09:18:43.204Z,10.40
2019-02-22T09:21:14.189Z,10.40
2019-02-22T09:23:45.105Z,10.40
2019-02-22T09:26:15.999Z,10.50
2019-02-22T09:28:49.668Z,10.50
2019-02-22T09:31:20.552Z,10.60
2019-02-22T09:33:51.627Z,10.60
2019-02-22T09:36:23.612Z,10.60
2019-02-22T09:38:55.569Z,10.60
2019-02-22T09:41:26.520Z,10.70
2019-02-22T09:43:57.639Z,10.70
2019-02-22T09:46:29.611Z,10.80
2019-02-22T09:49:01.694Z,10.80
2019-02-22T09:51:33.107Z,10.90
2019-02-22T09:54:04.149Z,11.00
2019-02-22T09:56:35.057Z,11.00
2019-02-22T09:59:06.028Z,11.10
2019-02-22T10:01:36.985Z,11.10
2019-02-22T10:04:08.027Z,11.20
2019-02-22T10:06:38.950Z,11.30
2019-02-22T10:09:09.970Z,11.30
2019-02-22T10:11:40.994Z,11.50
2019-02-22T10:14:12.161Z,11.50
2019-02-22T10:16:43.051Z,11.60
2019-02-22T10:19:17.068Z,11.60
2019-02-22T10:21:48.136Z,11.60
2019-02-22T10:24:19.588Z,11.80
2019-02-22T10:26:50.618Z,11.80
2019-02-22T10:29:23.982Z,12.00
2019-02-22T10:31:54.881Z,12.10
2019-02-22T10:34:25.872Z,12.10
2019-02-22T10:36:56.813Z,12.20
2019-02-22T10:39:27.727Z,12.30
2019-02-22T10:42:00.367Z,12.40
2019-02-22T10:44:32.400Z,12.40
2019-02-22T10:47:04.670Z,12.50
2019-02-22T10:49:35.586Z,12.50
2019-02-22T10:52:06.589Z,12.50
2019-02-22T10:54:37.565Z,12.60
2019-02-22T10:57:09.222Z,12.80
2019-02-22T10:59:40.341Z,13.10
2019-02-22T11:02:11.245Z,13.40
2019-02-22T11:04:42.280Z,13.80
2019-02-22T11:07:13.206Z,14.10
2019-02-22T11:09:44.527Z,14.40
2019-02-22T11:12:15.682Z,14.60
2019-02-22T11:14:46.686Z,15.00
2019-02-22T11:17:17.679Z,15.20
2019-02-22T11:19:48.576Z,15.50
2019-02-22T11:22:19.510Z,15.70
2019-02-22T11:24:50.415Z,15.60
2019-02-22T11:27:21.311Z,15.60
2019-02-22T11:29:52.309Z,15.50
2019-02-22T11:32:23.284Z,15.40
2019-02-22T11:34:54.252Z,15.20
2019-02-22T11:37:25.180Z,15.10
2019-02-22T11:39:56.181Z,15.00
2019-02-22T11:42:27.209Z,14.90
2019-02-22T11:44:59.060Z,14.80
2019-02-22T11:47:31.463Z,14.70
2019-02-22T11:50:04.152Z,14.70
2019-02-22T11:52:35.217Z,14.50
2019-02-22T11:55:07.274Z,14.40
2019-02-22T11:57:38.217Z,14.30
2019-02-22T12:00:12.441Z,14.20
2019-02-22T12:02:45.273Z,14.10
2019-02-22T12:05:16.285Z,14.10
2019-02-22T12:07:47.489Z,14.00
2019-02-22T12:10:18.984Z,14.10
2019-02-22T12:12:50.065Z,14.00
2019-02-22T12:15:22.350Z,14.10
2019-02-22T12:17:53.409Z,14.00
2019-02-22T12:20:24.324Z,14.00
2019-02-22T12:22:56.375Z,13.90
2019-02-22T12:25:27.421Z,13.90
2019-02-22T12:27:58.332Z,13.90
2019-02-22T12:30:29.371Z,13.80
2019-02-22T12:33:00.298Z,13.80
2019-02-22T12:35:31.562Z,14.00
2019-02-22T12:38:02.463Z,14.20
2019-02-22T12:40:33.635Z,14.30
2019-02-22T12:43:07.564Z,14.20
2019-02-22T12:45:38.492Z,14.00
2019-02-22T12:48:09.712Z,13.80
2019-02-22T12:50:40.714Z,13.60
2019-02-22T12:53:11.721Z,13.70
2019-02-22T12:55:42.626Z,14.10
2019-02-22T12:58:13.541Z,14.40
2019-02-22T13:00:44.613Z,14.50
2019-02-22T13:03:15.602Z,14.60
2019-02-22T13:05:46.574Z,14.60
2019-02-22T13:08:17.555Z,14.60
2019-02-22T13:10:49.276Z,14.60
2019-02-22T13:13:20.541Z,14.50
2019-02-22T13:15:51.458Z,14.40
2019-02-22T13:18:25.228Z,14.30
2019-02-22T13:20:57.298Z,14.20
2019-02-22T13:23:28.277Z,14.10
2019-02-22T13:25:59.217Z,14.10
2019-02-22T13:28:30.148Z,13.90
2019-02-22T13:31:01.183Z,13.90
2019-02-22T13:33:32.284Z,13.80
2019-02-22T13:36:03.292Z,13.80
2019-02-22T13:38:36.333Z,13.70
2019-02-22T13:41:07.202Z,13.80
2019-02-22T13:43:38.112Z,13.80
2019-02-22T13:46:09.089Z,13.90
2019-02-22T13:48:41.851Z,14.10
2019-02-22T13:51:14.065Z,14.30
2019-02-22T13:53:45.033Z,14.30
2019-02-22T13:56:16.234Z,14.30
2019-02-22T13:58:51.295Z,14.30
2019-02-22T14:01:23.916Z,14.20
2019-02-22T14:03:54.852Z,14.10
2019-02-22T14:06:26.001Z,14.00
2019-02-22T14:08:56.934Z,14.00
2019-02-22T14:11:28.299Z,13.90
2019-02-22T14:13:59.472Z,13.90
2019-02-22T14:16:30.652Z,13.90
2019-02-22T14:19:01.668Z,13.90
2019-02-22T14:21:34.930Z,13.80
2019-02-22T14:24:08.313Z,13.80
2019-02-22T14:26:39.699Z,13.80
2019-02-22T14:29:10.541Z,13.90
2019-02-22T14:31:41.526Z,13.90
2019-02-22T14:34:13.595Z,14.00
2019-02-22T14:36:44.619Z,14.00
2019-02-22T14:39:15.546Z,14.00
2019-02-22T14:41:49.861Z,13.80
2019-02-22T14:44:21.876Z,13.80
2019-02-22T14:46:54.786Z,13.90
2019-02-22T14:49:25.979Z,13.90
2019-02-22T14:51:57.015Z,13.90
2019-02-22T14:54:28.059Z,13.90
2019-02-22T14:56:59.041Z,13.90
2019-02-22T14:59:30.071Z,13.80
2019-02-22T15:02:02.478Z,13.80
2019-02-22T15:04:36.286Z,13.70
2019-02-22T15:07:07.160Z,13.60
2019-02-22T15:09:38.134Z,13.60
2019-02-22T15:12:11.798Z,13.50
2019-02-22T15:14:42.377Z,13.50
2019-02-22T15:17:18.383Z,13.50
2019-02-22T15:19:49.433Z,13.50
2019-02-22T15:22:20.450Z,13.50
2019-02-22T15:24:53.781Z,13.50
2019-02-22T15:27:24.920Z,13.40
2019-02-22T15:29:56.072Z,13.40
2019-02-22T15:32:28.625Z,13.30
2019-02-22T15:34:59.505Z,13.20
2019-02-22T15:37:30.427Z,13.10
2019-02-22T15:40:08.225Z,13.00
2019-02-22T15:42:40.624Z,12.90
2019-02-22T15:45:13.467Z,12.90
2019-02-22T15:47:44.533Z,12.90
2019-02-22T15:50:16.215Z,12.80
2019-02-22T15:52:48.217Z,12.70
2019-02-22T15:55:19.369Z,12.60
2019-02-22T15:57:50.736Z,12.60
2019-02-22T16:00:25.625Z,12.60
2019-02-22T16:02:56.675Z,12.50
2019-02-22T16:05:32.005Z,12.50
2019-02-22T16:08:02.988Z,12.40
2019-02-22T16:10:34.150Z,12.30
2019-02-22T16:13:06.956Z,12.30
2019-02-22T16:15:40.613Z,12.20
2019-02-22T16:18:10.985Z,12.10
2019-02-22T16:20:41.943Z,12.10
2019-02-22T16:23:12.962Z,12.00
2019-02-22T16:25:43.910Z,12.00
2019-02-22T16:28:15.854Z,12.00
2019-02-22T16:30:47.041Z,12.00
2019-02-22T16:33:18.091Z,11.90
2019-02-22T16:35:49.127Z,11.90
2019-02-22T16:38:20.065Z,11.90
2019-02-22T16:40:50.998Z,11.90
2019-02-22T16:43:23.048Z,11.90
2019-02-22T16:45:53.981Z,11.90
2019-02-22T16:48:25.077Z,11.80
2019-02-22T16:50:56.111Z,11.80
2019-02-22T16:53:27.332Z,11.80
2019-02-22T16:55:58.275Z,11.80
2019-02-22T16:58:29.383Z,11.80
2019-02-22T17:01:01.016Z,11.70
2019-02-22T17:03:32.216Z,11.60
2019-02-22T17:06:03.238Z,11.60
2019-02-22T17:08:34.257Z,11.50
2019-02-22T17:11:05.252Z,11.50
2019-02-22T17:13:36.684Z,11.40
2019-02-22T17:16:07.775Z,11.30
2019-02-22T17:18:40.888Z,11.30
2019-02-22T17:21:11.797Z,11.30
2019-02-22T17:23:42.885Z,11.30
2019-02-22T17:26:16.162Z,11.20
2019-02-22T17:28:47.331Z,11.20
2019-02-22T17:31:18.641Z,11.20
2019-02-22T17:33:49.688Z,11.10
2019-02-22T17:36:26.713Z,11.10
2019-02-22T17:38:53.192Z,11.10
2019-02-22T17:41:24.145Z,11.10
2019-02-22T17:43:55.152Z,11.10
2019-02-22T17:46:27.277Z,11.00
2019-02-22T17:48:58.458Z,11.00
2019-02-22T17:51:29.513Z,11.00
2019-02-22T17:54:00.660Z,11.00
2019-02-22T17:56:31.831Z,11.00
2019-02-22T17:59:03.870Z,11.00
2019-02-22T18:01:34.853Z,10.90
2019-02-22T18:04:05.838Z,10.90
2019-02-22T18:06:38.801Z,10.90
2019-02-22T18:09:11.455Z,10.90
2019-02-22T18:11:42.941Z,10.80
2019-02-22T18:14:15.939Z,10.80
2019-02-22T18:16:47.315Z,10.80
2019-02-22T18:19:18.348Z,10.80
2019-02-22T18:21:49.391Z,10.70
2019-02-22T18:24:20.340Z,10.70
2019-02-22T18:27:15.779Z,10.60
2019-02-22T18:29:47.130Z,10.60
2019-02-22T18:32:18.306Z,10.50
2019-02-22T18:34:49.367Z,10.50
2019-02-22T18:37:20.347Z,10.50
2019-02-22T18:39:51.433Z,10.50
2019-02-22T18:42:22.336Z,10.40
2019-02-22T18:44:53.424Z,10.40
2019-02-22T18:47:24.554Z,10.40
2019-02-22T18:49:55.689Z,10.30
2019-02-22T18:52:26.829Z,10.30
2019-02-22T18:54:57.921Z,10.20
2019-02-22T18:57:29.001Z,10.20
2019-02-22T19:00:00.412Z,10.10
2019-02-22T19:02:31.611Z,10.10
2019-02-22T19:05:02.879Z,10.00
2019-02-22T19:07:34.934Z,10.00
2019-02-22T19:10:07.158Z,9.90
2019-02-22T19:12:39.214Z,9.90
2019-02-22T19:15:13.081Z,9.90
2019-02-22T19:17:45.597Z,9.80
2019-02-22T19:20:16.543Z,9.80
2019-02-22T19:22:48.570Z,9.80
2019-02-22T19:25:20.675Z,9.70
2019-02-22T19:27:51.812Z,9.70
2019-02-22T19:30:23.053Z,9.60
2019-02-22T19:32:54.112Z,9.60
2019-02-22T19:35:25.111Z,9.60
2019-02-22T19:37:57.133Z,9.50
2019-02-22T19:40:29.404Z,9.50
2019-02-22T19:43:00.419Z,9.40
2019-02-22T19:45:31.575Z,9.40
2019-02-22T19:48:02.666Z,9.30
2019-02-22T19:50:41.063Z,9.30
2019-02-22T19:53:06.631Z,9.30
2019-02-22T19:55:37.579Z,9.20
2019-02-22T19:58:10.477Z,9.20
2019-02-22T20:00:42.660Z,9.20
2019-02-22T20:03:13.883Z,9.10
2019-02-22T20:05:44.969Z,9.10
2019-02-22T20:08:15.903Z,9.10
2019-02-22T20:10:51.493Z,9.10
2019-02-22T20:13:24.282Z,9.00
2019-02-22T20:15:56.577Z,9.00
2019-02-22T20:18:27.650Z,8.90
2019-02-22T20:21:01.572Z,8.80
2019-02-22T20:23:32.660Z,8.80
2019-02-22T20:30:04.582Z,8.70
2019-02-22T20:32:36.746Z,8.60
2019-02-22T20:35:11.249Z,8.60
2019-02-22T20:37:52.627Z,8.50
2019-02-22T20:40:17.830Z,8.50
2019-02-22T20:42:48.893Z,8.50
2019-02-22T20:45:21.052Z,8.40
2019-02-22T20:48:04.214Z,8.40
2019-02-22T20:50:26.759Z,8.40
2019-02-22T20:52:58.870Z,8.40
2019-02-22T20:55:30.905Z,8.40
2019-02-22T20:58:02.069Z,8.30
2019-02-22T21:00:35.792Z,8.30
2019-02-22T21:03:07.154Z,8.20
2019-02-22T21:05:40.266Z,8.20
2019-02-22T21:08:11.247Z,8.10
2019-02-22T21:10:42.516Z,8.10
2019-02-22T21:13:15.017Z,8.00
2019-02-22T21:15:47.365Z,8.00
2019-02-22T21:18:18.619Z,8.00
2019-02-22T21:20:49.780Z,7.90
2019-02-22T21:23:20.945Z,7.90
2019-02-22T21:25:57.745Z,7.80
2019-02-22T21:28:30.519Z,7.80
2019-02-22T21:31:01.719Z,7.70
2019-02-22T21:33:34.185Z,7.70
2019-02-22T21:36:05.204Z,7.60
2019-02-22T21:38:36.682Z,7.60
2019-02-22T21:41:07.641Z,7.60
2019-02-22T21:43:43.554Z,7.60
2019-02-22T21:46:15.833Z,7.60
2019-02-22T21:48:48.331Z,7.50
2019-02-22T21:51:19.479Z,7.50
2019-02-22T21:53:50.612Z,7.50
2019-02-22T21:56:21.707Z,7.40
2019-02-22T21:58:52.764Z,7.40
2019-02-22T22:01:23.783Z,7.40
2019-02-22T22:03:54.970Z,7.40
2019-02-22T22:06:27.852Z,7.40
2019-02-22T22:08:58.475Z,7.40
2019-02-22T22:11:29.444Z,7.30
2019-02-22T22:14:00.413Z,7.30
2019-02-22T22:16:31.404Z,7.20
2019-02-22T22:19:02.356Z,7.20
2019-02-22T22:21:33.360Z,7.10
2019-02-22T22:24:05.405Z,7.10
2019-02-22T22:26:36.664Z,7.00
2019-02-22T22:29:07.721Z,7.00
2019-02-22T22:31:39.781Z,7.00
2019-02-22T22:34:11.877Z,7.00
2019-02-22T22:36:42.788Z,7.00
2019-02-22T22:39:14.078Z,6.90
2019-02-22T22:41:45.129Z,6.90
2019-02-22T22:44:16.059Z,6.80
2019-02-22T22:46:47.093Z,6.80
2019-02-22T22:49:19.230Z,6.80
2019-02-22T22:51:52.248Z,6.70
2019-02-22T22:54:25.002Z,6.70
2019-02-22T22:56:56.324Z,6.60
2019-02-22T22:59:28.430Z,6.60
2019-02-22T23:01:59.734Z,6.60
2019-02-22T23:04:30.983Z,6.50
2019-02-22T23:07:01.911Z,6.50
2019-02-22T23:09:32.997Z,6.50
2019-02-22T23:12:04.602Z,6.50
2019-02-22T23:14:35.782Z,6.40
2019-02-22T23:17:06.685Z,6.40
2019-02-22T23:19:37.764Z,6.40
2019-02-22T23:22:08.794Z,6.30
2019-02-22T23:24:39.771Z,6.30
2019-02-22T23:27:10.758Z,6.30
2019-02-22T23:29:41.819Z,6.20
2019-02-22T23:32:14.961Z,6.20
2019-02-22T23:34:46.011Z,6.20
2019-02-22T23:37:17.114Z,6.10
2019-02-22T23:39:49.829Z,6.10
2019-02-22T23:42:20.982Z,6.10
2019-02-22T23:44:52.027Z,6.00
2019-02-22T23:47:22.953Z,6.00
2019-02-22T23:49:54.150Z,5.90
2019-02-22T23:52:25.162Z,5.90
2019-02-22T23:54:56.207Z,5.90
2019-02-22T23:57:27.347Z,5.90
2019-02-22T23:59:58.397Z,5.80
